createdAt,value
2019-02-11T00:01:18.410Z,99558.03
2019-02-11T00:04:24.282Z,99572.70
2019-02-11T00:07:30.068Z,99572.44
2019-02-11T00:10:35.862Z,99560.40
2019-02-11T00:13:41.635Z,99563.94
2019-02-11T00:16:47.487Z,99574.11
2019-02-11T00:19:53.269Z,99566.95
2019-02-11T00:22:59.097Z,99556.30
2019-02-11T00:26:04.855Z,99553.94
2019-02-11T00:29:10.639Z,99556.11
2019-02-11T00:32:16.423Z,99554.08
2019-02-11T00:35:22.197Z,99552.47
2019-02-11T00:38:28.002Z,99559.63
2019-02-11T00:41:33.796Z,99563.92
2019-02-11T00:44:39.582Z,99562.61
2019-02-11T00:47:45.329Z,99560.22
2019-02-11T00:50:51.135Z,99551.91
2019-02-11T00:53:56.909Z,99547.11
2019-02-11T00:57:02.685Z,99548.03
2019-02-11T01:00:10.593Z,99550.34
2019-02-11T01:03:16.372Z,99544.52
2019-02-11T01:06:22.176Z,99542.38
2019-02-11T01:09:27.925Z,99544.88
2019-02-11T01:12:33.718Z,99539.50
2019-02-11T01:15:39.480Z,99538.17
2019-02-11T01:18:45.254Z,99537.77
2019-02-11T01:21:51.012Z,99531.51
2019-02-11T01:24:56.798Z,99521.16
2019-02-11T01:28:02.555Z,99516.89
2019-02-11T01:31:08.322Z,99523.83
2019-02-11T01:34:14.059Z,99521.42
2019-02-11T01:37:19.841Z,99534.77
2019-02-11T01:40:25.598Z,99542.59
2019-02-11T01:43:36.138Z,99547.04
2019-02-11T01:46:38.789Z,99547.69
2019-02-11T01:49:44.682Z,99540.35
2019-02-11T01:52:50.444Z,99523.73
2019-02-11T01:55:56.213Z,99524.00
2019-02-11T01:59:01.976Z,99523.49
2019-02-11T02:02:07.763Z,99525.95
2019-02-11T02:05:13.599Z,99517.17
2019-02-11T02:08:19.447Z,99517.55
2019-02-11T02:11:25.202Z,99515.75
2019-02-11T02:14:31.132Z,99506.51
2019-02-11T02:17:36.904Z,99493.77
2019-02-11T02:20:42.730Z,99496.48
2019-02-11T02:23:48.492Z,99490.75
2019-02-11T02:26:54.256Z,99487.34
2019-02-11T02:30:00.035Z,99486.09
2019-02-11T02:33:05.939Z,99492.55
2019-02-11T02:36:11.730Z,99472.45
2019-02-11T02:39:17.507Z,99470.22
2019-02-11T02:42:23.273Z,99464.71
2019-02-11T02:45:29.256Z,99474.08
2019-02-11T02:48:35.009Z,99488.16
2019-02-11T02:51:40.777Z,99489.16
2019-02-11T02:54:46.861Z,99481.78
2019-02-11T02:57:52.672Z,99473.58
2019-02-11T03:00:58.450Z,99473.84
2019-02-11T03:04:04.218Z,99475.81
2019-02-11T03:07:09.979Z,99464.23
2019-02-11T03:10:15.915Z,99462.45
2019-02-11T03:13:21.649Z,99468.64
2019-02-11T03:16:27.422Z,99473.01
2019-02-11T03:19:33.179Z,99471.45
2019-02-11T03:22:38.973Z,99457.80
2019-02-11T03:25:44.727Z,99457.17
2019-02-11T03:28:50.483Z,99460.76
2019-02-11T03:31:59.736Z,99455.23
2019-02-11T03:35:03.705Z,99463.80
2019-02-11T03:38:09.461Z,99464.86
2019-02-11T03:41:15.258Z,99453.97
2019-02-11T03:44:21.049Z,99453.05
2019-02-11T03:47:26.874Z,99460.02
2019-02-11T03:50:32.637Z,99460.49
2019-02-11T03:53:38.404Z,99454.36
2019-02-11T03:56:44.357Z,99452.59
2019-02-11T03:59:50.237Z,99458.61
2019-02-11T04:02:56.309Z,99461.46
2019-02-11T04:06:02.058Z,99447.06
2019-02-11T04:09:08.412Z,99448.47
2019-02-11T04:12:14.187Z,99447.98
2019-02-11T04:15:19.971Z,99430.58
2019-02-11T04:18:25.773Z,99437.94
2019-02-11T04:21:31.542Z,99435.23
2019-02-11T04:24:37.502Z,99440.64
2019-02-11T04:27:43.255Z,99421.80
2019-02-11T04:30:49.060Z,99400.93
2019-02-11T04:33:54.881Z,99406.80
2019-02-11T04:37:00.636Z,99399.05
2019-02-11T04:40:07.325Z,99395.42
2019-02-11T04:43:13.110Z,99378.67
2019-02-11T04:46:18.879Z,99367.55
2019-02-11T04:49:24.646Z,99361.63
2019-02-11T04:52:30.406Z,99360.37
2019-02-11T04:55:36.210Z,99364.62
2019-02-11T04:58:41.964Z,99355.24
2019-02-11T05:01:47.715Z,99349.41
2019-02-11T05:04:53.483Z,99342.17
2019-02-11T05:07:59.270Z,99352.23
2019-02-11T05:11:05.145Z,99364.23
2019-02-11T05:14:10.914Z,99359.67
2019-02-11T05:17:16.683Z,99370.03
2019-02-11T05:20:22.526Z,99384.98
2019-02-11T05:23:28.284Z,99387.45
2019-02-11T05:26:34.057Z,99388.30
2019-02-11T05:29:39.821Z,99410.77
2019-02-11T05:32:45.626Z,99412.28
2019-02-11T05:35:51.377Z,99418.52
2019-02-11T05:38:57.231Z,99397.78
2019-02-11T05:42:02.995Z,99389.67
2019-02-11T05:45:09.014Z,99388.26
2019-02-11T05:48:14.771Z,99370.78
2019-02-11T05:51:20.554Z,99376.70
2019-02-11T05:54:26.319Z,99378.63
2019-02-11T05:57:32.124Z,99385.61
2019-02-11T06:00:37.890Z,99375.14
2019-02-11T06:03:43.660Z,99362.72
2019-02-11T06:06:49.442Z,99372.67
2019-02-11T06:09:55.203Z,99351.28
2019-02-11T06:13:00.955Z,99351.24
2019-02-11T06:16:06.752Z,99359.28
2019-02-11T06:19:12.479Z,99370.89
2019-02-11T06:22:18.233Z,99375.13
2019-02-11T06:25:23.994Z,99381.45
2019-02-11T06:28:29.770Z,99372.25
2019-02-11T06:31:35.645Z,99380.51
2019-02-11T06:34:41.611Z,99374.73
2019-02-11T06:37:47.382Z,99394.09
2019-02-11T06:40:53.181Z,99400.08
2019-02-11T06:43:58.938Z,99416.68
2019-02-11T06:47:04.705Z,99435.88
2019-02-11T06:50:11.456Z,99452.30
2019-02-11T06:53:18.259Z,99448.34
2019-02-11T06:56:24.044Z,99440.80
2019-02-11T06:59:31.043Z,99428.97
2019-02-11T07:02:36.804Z,99421.97
2019-02-11T07:05:42.610Z,99393.55
2019-02-11T07:08:48.381Z,99383.52
2019-02-11T07:11:54.151Z,99395.17
2019-02-11T07:14:59.910Z,99400.54
2019-02-11T07:18:05.702Z,99407.39
2019-02-11T07:21:11.478Z,99409.43
2019-02-11T07:24:17.309Z,99403.36
2019-02-11T07:27:23.222Z,99401.13
2019-02-11T07:30:29.041Z,99393.38
2019-02-11T07:33:34.936Z,99395.38
2019-02-11T07:36:40.717Z,99402.56
2019-02-11T07:39:46.508Z,99393.52
2019-02-11T07:42:57.538Z,99388.17
2019-02-11T07:46:31.515Z,99377.98
2019-02-11T07:49:37.439Z,99377.53
2019-02-11T07:52:43.309Z,99388.01
2019-02-11T07:55:49.119Z,99392.91
2019-02-11T07:58:54.906Z,99383.48
2019-02-11T08:02:00.687Z,99379.84
2019-02-11T08:05:07.039Z,99374.34
2019-02-11T08:08:12.873Z,99364.59
2019-02-11T08:11:18.770Z,99360.50
2019-02-11T08:14:24.730Z,99360.16
2019-02-11T08:17:30.647Z,99347.06
2019-02-11T08:20:36.721Z,99332.78
2019-02-11T08:23:42.562Z,99328.26
2019-02-11T08:26:48.376Z,99314.02
2019-02-11T08:29:55.161Z,99316.38
2019-02-11T08:33:01.014Z,99308.89
2019-02-11T08:36:06.803Z,99302.03
2019-02-11T08:39:12.832Z,99311.22
2019-02-11T08:42:18.609Z,99311.28
2019-02-11T08:45:24.403Z,99314.30
2019-02-11T08:48:30.205Z,99304.47
2019-02-11T08:51:36.035Z,99295.19
2019-02-11T08:54:41.847Z,99298.09
2019-02-11T08:57:47.714Z,99326.55
2019-02-11T09:00:53.615Z,99328.78
2019-02-11T09:03:59.495Z,99300.83
2019-02-11T09:07:05.361Z,99281.72
2019-02-11T09:10:11.835Z,99272.30
2019-02-11T09:13:18.728Z,99270.70
2019-02-11T09:16:24.707Z,99256.28
2019-02-11T09:19:30.531Z,99252.50
2019-02-11T09:22:36.317Z,99261.13
2019-02-11T09:25:42.149Z,99259.81
2019-02-11T09:28:49.080Z,99251.02
2019-02-11T09:31:54.861Z,99248.73
2019-02-11T09:35:00.644Z,99240.39
2019-02-11T09:38:06.590Z,99234.84
2019-02-11T09:41:12.487Z,99231.09
2019-02-11T09:44:18.420Z,99231.23
2019-02-11T09:47:24.204Z,99227.47
2019-02-11T09:50:39.859Z,99210.78
2019-02-11T09:53:45.782Z,99195.33
2019-02-11T09:56:51.670Z,99200.38
2019-02-11T09:59:57.524Z,99184.52
2019-02-11T10:03:03.585Z,99170.55
2019-02-11T10:06:09.359Z,99164.64
2019-02-11T10:09:15.250Z,99161.66
2019-02-11T10:12:21.553Z,99149.48
2019-02-11T10:15:27.495Z,99144.03
2019-02-11T10:18:33.277Z,99139.17
2019-02-11T10:21:39.160Z,99130.80
2019-02-11T10:24:44.984Z,99132.28
2019-02-11T10:27:50.756Z,99132.84
2019-02-11T10:30:57.061Z,99124.72
2019-02-11T10:34:03.878Z,99114.51
2019-02-11T10:37:09.833Z,99111.78
2019-02-11T10:40:15.974Z,99105.45
2019-02-11T10:43:21.900Z,99094.84
2019-02-11T10:46:27.866Z,99083.92
2019-02-11T10:49:33.639Z,99074.77
2019-02-11T10:52:40.426Z,99077.39
2019-02-11T10:55:46.385Z,99067.03
2019-02-11T10:58:52.238Z,99068.61
2019-02-11T11:01:58.161Z,99060.59
2019-02-11T11:05:04.115Z,99058.73
2019-02-11T11:08:10.093Z,99067.55
2019-02-11T11:11:16.007Z,99059.11
2019-02-11T11:14:21.898Z,99060.11
2019-02-11T11:17:27.823Z,99056.36
2019-02-11T11:20:33.816Z,99034.73
2019-02-11T11:23:39.604Z,99027.42
2019-02-11T11:26:45.461Z,99020.53
2019-02-11T11:29:51.242Z,99023.98
2019-02-11T11:32:57.065Z,99010.81
2019-02-11T11:36:02.873Z,99010.92
2019-02-11T11:39:18.322Z,99010.13
2019-02-11T11:42:24.173Z,98989.13
2019-02-11T11:45:30.005Z,98978.66
2019-02-11T11:48:36.099Z,98976.33
2019-02-11T11:51:41.880Z,98974.73
2019-02-11T11:54:47.678Z,98967.22
2019-02-11T11:57:53.574Z,98962.88
2019-02-11T12:00:59.533Z,98944.55
2019-02-11T12:04:06.676Z,98934.47
2019-02-11T12:07:12.821Z,98928.58
2019-02-11T12:10:20.124Z,98925.11
2019-02-11T12:13:27.792Z,98915.03
2019-02-11T12:16:34.697Z,98902.09
2019-02-11T12:19:40.491Z,98899.83
2019-02-11T12:22:46.812Z,98903.73
2019-02-11T12:25:52.636Z,98899.29
2019-02-11T12:28:58.437Z,98892.66
2019-02-11T12:32:05.828Z,98884.32
2019-02-11T12:35:12.607Z,98882.08
2019-02-11T12:38:18.435Z,98871.20
2019-02-11T12:41:24.334Z,98874.90
2019-02-11T12:44:30.183Z,98853.70
2019-02-11T12:47:35.970Z,98861.20
2019-02-11T12:50:41.889Z,98865.52
2019-02-11T12:53:48.076Z,98853.05
2019-02-11T12:56:53.854Z,98851.40
2019-02-11T12:59:59.656Z,98854.95
2019-02-11T13:03:06.010Z,98859.95
2019-02-11T13:06:11.832Z,98866.81
2019-02-11T13:09:17.698Z,98862.17
2019-02-11T13:12:23.563Z,98868.79
2019-02-11T13:15:56.368Z,98861.96
2019-02-11T13:18:39.400Z,98857.17
2019-02-11T13:21:44.632Z,98865.41
2019-02-11T13:24:50.404Z,98861.16
2019-02-11T13:27:56.215Z,98856.19
2019-02-11T13:31:02.217Z,98863.68
2019-02-11T13:34:08.064Z,98868.47
2019-02-11T13:37:13.977Z,98868.87
2019-02-11T13:40:19.891Z,98871.61
2019-02-11T13:43:25.763Z,98866.03
2019-02-11T13:46:31.565Z,98851.99
2019-02-11T13:49:37.346Z,98861.83
2019-02-11T13:52:43.211Z,98869.52
2019-02-11T13:55:49.287Z,98869.81
2019-02-11T13:58:55.287Z,98879.45
2019-02-11T14:02:01.136Z,98878.13
2019-02-11T14:05:07.518Z,98873.44
2019-02-11T14:08:13.795Z,98880.60
2019-02-11T14:11:19.577Z,98870.96
2019-02-11T14:14:31.796Z,98865.72
2019-02-11T14:17:37.709Z,98857.73
2019-02-11T14:20:44.048Z,98855.91
2019-02-11T14:23:50.039Z,98857.08
2019-02-11T14:26:55.817Z,98860.44
2019-02-11T14:30:01.623Z,98857.08
2019-02-11T14:33:08.260Z,98854.78
2019-02-11T14:36:14.337Z,98847.59
2019-02-11T14:39:20.389Z,98845.09
2019-02-11T14:42:26.321Z,98842.08
2019-02-11T14:45:32.230Z,98836.83
2019-02-11T14:48:38.143Z,98825.89
2019-02-11T14:51:44.986Z,98814.03
2019-02-11T14:54:50.890Z,98817.75
2019-02-11T14:57:56.718Z,98819.50
2019-02-11T15:01:02.507Z,98838.41
2019-02-11T15:04:08.316Z,98833.89
2019-02-11T15:07:14.046Z,98828.67
2019-02-11T15:10:19.979Z,98834.58
2019-02-11T15:13:25.742Z,98831.62
2019-02-11T15:16:31.637Z,98837.09
2019-02-11T15:19:37.409Z,98833.83
2019-02-11T15:22:43.219Z,98834.40
2019-02-11T15:25:48.985Z,98835.87
2019-02-11T15:28:54.893Z,98828.73
2019-02-11T15:32:00.667Z,98812.39
2019-02-11T15:35:06.575Z,98807.50
2019-02-11T15:38:12.368Z,98809.96
2019-02-11T15:41:18.143Z,98803.44
2019-02-11T15:44:23.900Z,98805.64
2019-02-11T15:47:29.685Z,98803.05
2019-02-11T15:50:35.688Z,98799.30
2019-02-11T15:53:41.600Z,98798.19
2019-02-11T15:56:47.419Z,98789.37
2019-02-11T15:59:53.174Z,98771.09
2019-02-11T16:02:58.940Z,98777.45
2019-02-11T16:06:10.215Z,98771.41
2019-02-11T16:09:12.454Z,98772.06
2019-02-11T16:12:18.256Z,98753.98
2019-02-11T16:15:24.126Z,98743.35
2019-02-11T16:18:30.000Z,98745.00
2019-02-11T16:21:35.773Z,98747.02
2019-02-11T16:24:41.646Z,98745.52
2019-02-11T16:27:47.555Z,98749.29
2019-02-11T16:30:53.325Z,98744.58
2019-02-11T16:33:59.143Z,98747.17
2019-02-11T16:37:05.020Z,98767.25
2019-02-11T16:40:13.604Z,98771.16
2019-02-11T16:43:20.417Z,98766.41
2019-02-11T16:46:26.194Z,98754.00
2019-02-11T16:49:31.984Z,98747.27
2019-02-11T16:52:37.882Z,98752.05
2019-02-11T16:55:43.775Z,98731.36
2019-02-11T16:58:49.662Z,98744.91
2019-02-11T17:01:55.459Z,98748.77
2019-02-11T17:05:01.241Z,98751.09
2019-02-11T17:08:07.090Z,98749.13
2019-02-11T17:11:12.862Z,98754.86
2019-02-11T17:14:20.324Z,98759.89
2019-02-11T17:17:26.119Z,98748.66
2019-02-11T17:20:31.915Z,98723.33
2019-02-11T17:23:37.823Z,98707.78
2019-02-11T17:26:43.693Z,98704.13
2019-02-11T17:29:49.644Z,98714.32
2019-02-11T17:32:55.568Z,98723.47
2019-02-11T17:36:01.371Z,98738.72
2019-02-11T17:39:08.875Z,98733.27
2019-02-11T17:42:14.898Z,98744.00
2019-02-11T17:45:23.013Z,98737.52
2019-02-11T17:48:28.904Z,98720.91
2019-02-11T17:51:34.814Z,98710.45
2019-02-11T17:54:40.647Z,98710.30
2019-02-11T17:57:46.619Z,98702.33
2019-02-11T18:00:56.205Z,98692.20
2019-02-11T18:04:01.976Z,98688.49
2019-02-11T18:07:08.331Z,98696.77
2019-02-11T18:10:14.225Z,98700.99
2019-02-11T18:13:20.004Z,98689.92
2019-02-11T18:16:25.945Z,98697.13
2019-02-11T18:19:31.759Z,98682.73
2019-02-11T18:22:37.691Z,98681.34
2019-02-11T18:25:43.525Z,98678.27
2019-02-11T18:28:49.408Z,98691.45
2019-02-11T18:31:55.228Z,98686.94
2019-02-11T18:35:01.080Z,98678.02
2019-02-11T18:38:06.926Z,98688.64
2019-02-11T18:41:12.712Z,98691.34
2019-02-11T18:44:18.697Z,98694.16
2019-02-11T18:47:24.553Z,98685.22
2019-02-11T18:50:30.430Z,98679.05
2019-02-11T18:53:36.260Z,98677.82
2019-02-11T18:56:42.156Z,98661.41
2019-02-11T18:59:47.949Z,98667.31
2019-02-11T19:02:54.127Z,98678.41
2019-02-11T19:06:00.046Z,98654.92
2019-02-11T19:09:08.732Z,98647.44
2019-02-11T19:12:14.887Z,98652.00
2019-02-11T19:15:20.861Z,98654.30
2019-02-11T19:18:26.711Z,98660.30
2019-02-11T19:21:33.458Z,98662.59
2019-02-11T19:24:39.296Z,98648.58
2019-02-11T19:27:45.076Z,98658.67
2019-02-11T19:30:50.954Z,98653.16
2019-02-11T19:33:56.813Z,98641.17
2019-02-11T19:37:02.627Z,98637.92
2019-02-11T19:40:10.225Z,98653.72
2019-02-11T19:43:16.055Z,98654.41
2019-02-11T19:46:22.221Z,98660.28
2019-02-11T19:49:28.057Z,98661.91
2019-02-11T19:52:33.952Z,98644.94
2019-02-11T19:55:39.830Z,98641.00
2019-02-11T19:58:45.709Z,98642.68
2019-02-11T20:01:51.483Z,98631.33
2019-02-11T20:04:57.284Z,98643.55
2019-02-11T20:08:03.063Z,98646.94
2019-02-11T20:11:08.936Z,98628.75
2019-02-11T20:14:14.769Z,98624.58
2019-02-11T20:17:20.523Z,98628.91
2019-02-11T20:20:26.428Z,98619.08
2019-02-11T20:23:32.177Z,98620.78
2019-02-11T20:26:37.936Z,98632.31
2019-02-11T20:29:43.700Z,98619.92
2019-02-11T20:32:49.611Z,98613.87
2019-02-11T20:35:55.431Z,98616.06
2019-02-11T20:39:01.208Z,98587.91
2019-02-11T20:42:08.615Z,98597.09
2019-02-11T20:45:17.169Z,98605.97
2019-02-11T20:48:22.978Z,98606.61
2019-02-11T20:51:28.779Z,98609.22
2019-02-11T20:54:34.569Z,98596.33
2019-02-11T20:57:40.495Z,98591.69
2019-02-11T21:00:46.363Z,98576.52
2019-02-11T21:03:52.144Z,98571.23
2019-02-11T21:06:57.918Z,98590.16
2019-02-11T21:10:03.949Z,98603.55
2019-02-11T21:13:09.825Z,98593.95
2019-02-11T21:16:15.612Z,98595.67
2019-02-11T21:19:21.391Z,98587.36
2019-02-11T21:22:27.556Z,98596.67
2019-02-11T21:25:33.431Z,98586.94
2019-02-11T21:28:39.223Z,98590.05
2019-02-11T21:31:45.146Z,98586.41
2019-02-11T21:34:50.924Z,98564.88
2019-02-11T21:37:56.709Z,98583.17
2019-02-11T21:41:03.522Z,98576.88
2019-02-11T21:44:09.306Z,98524.16
2019-02-11T21:47:15.107Z,98547.47
2019-02-11T21:50:26.276Z,98564.84
2019-02-11T21:53:28.654Z,98567.65
2019-02-11T21:56:34.409Z,98543.02
2019-02-11T21:59:40.304Z,98559.67
2019-02-11T22:02:46.132Z,98524.34
2019-02-11T22:05:51.889Z,98532.13
2019-02-11T22:08:57.735Z,98520.98
2019-02-11T22:12:03.514Z,98522.82
2019-02-11T22:15:10.041Z,98494.31
2019-02-11T22:18:15.820Z,98503.97
2019-02-11T22:21:21.639Z,98513.09
2019-02-11T22:24:27.431Z,98488.73
2019-02-11T22:27:33.300Z,98494.47
2019-02-11T22:30:40.096Z,98502.06
2019-02-11T22:33:45.852Z,98468.69
2019-02-11T22:36:51.640Z,98501.55
2019-02-11T22:39:57.515Z,98499.25
2019-02-11T22:43:03.350Z,98474.42
2019-02-11T22:46:09.134Z,98494.13
2019-02-11T22:49:14.928Z,98503.27
2019-02-11T22:52:20.689Z,98498.89
2019-02-11T22:55:26.483Z,98534.02
2019-02-11T22:58:33.236Z,98491.81
2019-02-11T23:01:39.121Z,98521.32
2019-02-11T23:04:44.899Z,98503.48
2019-02-11T23:07:50.661Z,98475.48
2019-02-11T23:10:56.417Z,98522.00
2019-02-11T23:14:02.248Z,98507.05
2019-02-11T23:17:08.002Z,98529.86
2019-02-11T23:20:14.011Z,98534.27
2019-02-11T23:23:19.781Z,98544.17
2019-02-11T23:26:25.613Z,98566.95
2019-02-11T23:29:31.378Z,98569.03
2019-02-11T23:32:37.149Z,98578.91
2019-02-11T23:35:43.036Z,98590.03
2019-02-11T23:38:48.811Z,98608.75
2019-02-11T23:41:54.569Z,98606.86
2019-02-11T23:45:00.353Z,98602.66
2019-02-11T23:48:06.243Z,98621.00
2019-02-11T23:51:12.036Z,98613.31
2019-02-11T23:54:17.812Z,98609.91
2019-02-11T23:57:23.646Z,98621.71
